sensor_id;sensor_type;location;lat;lon;timestamp;pressure;altitude;pressure_sealevel;temperature;humidity
61361;BME280;47232;47.506;18.936;2022-08-05T00:00:14;98346.85;;;26.39;31.50
61361;BME280;47232;47.506;18.936;2022-08-05T00:02:39;98353.67;;;26.38;31.50
61361;BME280;47232;47.506;18.936;2022-08-05T00:05:05;98349.10;;;26.36;31.52
61361;BME280;47232;47.506;18.936;2022-08-05T00:07:31;98354.00;;;26.36;31.45
61361;BME280;47232;47.506;18.936;2022-08-05T00:09:56;98354.27;;;26.34;31.56
61361;BME280;47232;47.506;18.936;2022-08-05T00:12:22;98344.42;;;26.33;31.80
61361;BME280;47232;47.506;18.936;2022-08-05T00:14:47;98352.27;;;26.31;31.60
61361;BME280;47232;47.506;18.936;2022-08-05T00:17:13;98350.66;;;26.27;31.85
61361;BME280;47232;47.506;18.936;2022-08-05T00:19:38;98353.36;;;26.25;31.67
61361;BME280;47232;47.506;18.936;2022-08-05T00:22:04;98350.81;;;26.22;31.66
61361;BME280;47232;47.506;18.936;2022-08-05T00:24:29;98349.02;;;26.19;31.59
61361;BME280;47232;47.506;18.936;2022-08-05T00:26:55;98350.07;;;26.18;31.69
61361;BME280;47232;47.506;18.936;2022-08-05T00:29:20;98347.65;;;26.17;31.70
61361;BME280;47232;47.506;18.936;2022-08-05T00:31:46;98352.05;;;26.16;31.77
61361;BME280;47232;47.506;18.936;2022-08-05T00:34:12;98351.38;;;26.14;31.69
61361;BME280;47232;47.506;18.936;2022-08-05T00:36:37;98349.44;;;26.11;31.96
61361;BME280;47232;47.506;18.936;2022-08-05T00:39:03;98345.64;;;26.07;32.02
61361;BME280;47232;47.506;18.936;2022-08-05T00:41:32;98347.02;;;26.04;32.09
61361;BME280;47232;47.506;18.936;2022-08-05T00:43:59;98347.52;;;26.02;32.35
61361;BME280;47232;47.506;18.936;2022-08-05T00:46:24;98343.88;;;25.96;32.27
61361;BME280;47232;47.506;18.936;2022-08-05T00:48:50;98347.55;;;25.92;32.21
61361;BME280;47232;47.506;18.936;2022-08-05T00:51:16;98344.70;;;25.87;32.50
61361;BME280;47232;47.506;18.936;2022-08-05T00:53:42;98342.77;;;25.84;32.46
61361;BME280;47232;47.506;18.936;2022-08-05T00:56:07;98339.11;;;25.80;32.61
61361;BME280;47232;47.506;18.936;2022-08-05T00:58:33;98339.83;;;25.77;32.79
61361;BME280;47232;47.506;18.936;2022-08-05T01:00:59;98330.34;;;25.72;32.95
61361;BME280;47232;47.506;18.936;2022-08-05T01:03:24;98334.35;;;25.66;32.76
61361;BME280;47232;47.506;18.936;2022-08-05T01:05:52;98326.92;;;25.62;32.59
61361;BME280;47232;47.506;18.936;2022-08-05T01:08:18;98328.20;;;25.60;32.55
61361;BME280;47232;47.506;18.936;2022-08-05T01:10:50;98324.05;;;25.57;32.62
61361;BME280;47232;47.506;18.936;2022-08-05T01:13:38;98328.59;;;25.53;32.62
61361;BME280;47232;47.506;18.936;2022-08-05T01:16:08;98326.57;;;25.50;32.64
61361;BME280;47232;47.506;18.936;2022-08-05T01:18:40;98328.42;;;25.46;32.78
61361;BME280;47232;47.506;18.936;2022-08-05T01:21:15;98327.98;;;25.42;32.81
61361;BME280;47232;47.506;18.936;2022-08-05T01:24:09;98327.95;;;25.39;32.78
61361;BME280;47232;47.506;18.936;2022-08-05T01:27:02;98327.38;;;25.33;32.95
61361;BME280;47232;47.506;18.936;2022-08-05T01:29:40;98328.75;;;25.29;33.15
61361;BME280;47232;47.506;18.936;2022-08-05T01:32:10;98330.38;;;25.25;33.34
61361;BME280;47232;47.506;18.936;2022-08-05T01:34:58;98331.05;;;25.18;33.45
61361;BME280;47232;47.506;18.936;2022-08-05T01:37:32;98333.15;;;25.12;33.68
61361;BME280;47232;47.506;18.936;2022-08-05T01:40:00;98332.02;;;25.08;33.71
61361;BME280;47232;47.506;18.936;2022-08-05T01:42:28;98334.14;;;25.04;34.13
61361;BME280;47232;47.506;18.936;2022-08-05T01:44:58;98334.67;;;24.98;34.16
61361;BME280;47232;47.506;18.936;2022-08-05T01:47:25;98338.33;;;24.93;34.29
61361;BME280;47232;47.506;18.936;2022-08-05T01:49:53;98338.48;;;24.86;34.44
61361;BME280;47232;47.506;18.936;2022-08-05T01:52:20;98339.14;;;24.80;34.82
61361;BME280;47232;47.506;18.936;2022-08-05T01:54:53;98334.23;;;24.74;34.84
61361;BME280;47232;47.506;18.936;2022-08-05T01:57:28;98336.77;;;24.69;34.85
61361;BME280;47232;47.506;18.936;2022-08-05T01:59:57;98336.99;;;24.62;35.16
61361;BME280;47232;47.506;18.936;2022-08-05T02:02:24;98334.50;;;24.57;35.19
61361;BME280;47232;47.506;18.936;2022-08-05T02:04:51;98340.52;;;24.50;35.31
61361;BME280;47232;47.506;18.936;2022-08-05T02:07:19;98337.11;;;24.44;35.46
61361;BME280;47232;47.506;18.936;2022-08-05T02:09:45;98332.56;;;24.38;35.68
61361;BME280;47232;47.506;18.936;2022-08-05T02:12:18;98336.29;;;24.32;35.76
61361;BME280;47232;47.506;18.936;2022-08-05T02:14:54;98335.05;;;24.26;35.90
61361;BME280;47232;47.506;18.936;2022-08-05T02:17:28;98335.96;;;24.19;36.05
61361;BME280;47232;47.506;18.936;2022-08-05T02:19:58;98333.94;;;24.13;36.08
61361;BME280;47232;47.506;18.936;2022-08-05T02:22:25;98328.08;;;24.08;36.17
61361;BME280;47232;47.506;18.936;2022-08-05T02:24:57;98334.79;;;24.02;36.37
61361;BME280;47232;47.506;18.936;2022-08-05T02:27:27;98336.86;;;23.96;36.43
61361;BME280;47232;47.506;18.936;2022-08-05T02:29:55;98332.39;;;23.91;36.58
61361;BME280;47232;47.506;18.936;2022-08-05T02:32:21;98334.00;;;23.86;36.68
61361;BME280;47232;47.506;18.936;2022-08-05T02:34:51;98332.67;;;23.82;36.55
61361;BME280;47232;47.506;18.936;2022-08-05T02:37:18;98328.75;;;23.77;36.49
61361;BME280;47232;47.506;18.936;2022-08-05T02:39:46;98325.55;;;23.74;36.41
61361;BME280;47232;47.506;18.936;2022-08-05T02:42:12;98321.47;;;23.72;36.41
61361;BME280;47232;47.506;18.936;2022-08-05T02:44:39;98319.75;;;23.69;36.48
61361;BME280;47232;47.506;18.936;2022-08-05T02:47:07;98323.83;;;23.65;36.60
61361;BME280;47232;47.506;18.936;2022-08-05T02:49:36;98322.96;;;23.61;36.83
61361;BME280;47232;47.506;18.936;2022-08-05T02:52:04;98322.04;;;23.59;36.74
61361;BME280;47232;47.506;18.936;2022-08-05T02:54:33;98317.95;;;23.55;36.72
61361;BME280;47232;47.506;18.936;2022-08-05T02:57:00;98321.19;;;23.51;36.70
61361;BME280;47232;47.506;18.936;2022-08-05T02:59:27;98315.84;;;23.49;36.85
61361;BME280;47232;47.506;18.936;2022-08-05T03:01:55;98314.60;;;23.48;36.71
61361;BME280;47232;47.506;18.936;2022-08-05T03:04:25;98313.66;;;23.45;36.62
61361;BME280;47232;47.506;18.936;2022-08-05T03:06:51;98313.05;;;23.44;36.38
61361;BME280;47232;47.506;18.936;2022-08-05T03:09:17;98306.69;;;23.42;36.48
61361;BME280;47232;47.506;18.936;2022-08-05T03:11:42;98305.59;;;23.40;36.34
61361;BME280;47232;47.506;18.936;2022-08-05T03:14:09;98304.25;;;23.39;36.21
61361;BME280;47232;47.506;18.936;2022-08-05T03:16:35;98305.98;;;23.39;36.54
61361;BME280;47232;47.506;18.936;2022-08-05T03:19:00;98308.50;;;23.39;36.67
61361;BME280;47232;47.506;18.936;2022-08-05T03:21:26;98305.67;;;23.37;36.67
61361;BME280;47232;47.506;18.936;2022-08-05T03:23:51;98304.42;;;23.35;36.54
61361;BME280;47232;47.506;18.936;2022-08-05T03:26:18;98299.01;;;23.35;36.61
61361;BME280;47232;47.506;18.936;2022-08-05T03:28:43;98302.94;;;23.34;36.73
61361;BME280;47232;47.506;18.936;2022-08-05T03:31:09;98293.52;;;23.31;36.91
61361;BME280;47232;47.506;18.936;2022-08-05T03:33:35;98296.35;;;23.29;36.66
61361;BME280;47232;47.506;18.936;2022-08-05T03:36:01;98293.61;;;23.27;36.63
61361;BME280;47232;47.506;18.936;2022-08-05T03:38:27;98290.08;;;23.26;36.83
61361;BME280;47232;47.506;18.936;2022-08-05T03:40:52;98290.87;;;23.24;36.91
61361;BME280;47232;47.506;18.936;2022-08-05T03:43:18;98291.98;;;23.22;36.92
61361;BME280;47232;47.506;18.936;2022-08-05T03:45:45;98288.05;;;23.21;36.97
61361;BME280;47232;47.506;18.936;2022-08-05T03:48:11;98290.88;;;23.20;36.74
61361;BME280;47232;47.506;18.936;2022-08-05T03:51:02;98292.45;;;23.19;36.86
61361;BME280;47232;47.506;18.936;2022-08-05T03:53:51;98292.67;;;23.18;37.04
61361;BME280;47232;47.506;18.936;2022-08-05T03:56:30;98291.27;;;23.18;37.15
61361;BME280;47232;47.506;18.936;2022-08-05T03:59:00;98292.05;;;23.17;37.15
61361;BME280;47232;47.506;18.936;2022-08-05T04:01:30;98292.69;;;23.16;37.00
61361;BME280;47232;47.506;18.936;2022-08-05T04:03:58;98296.14;;;23.15;37.17
61361;BME280;47232;47.506;18.936;2022-08-05T04:06:25;98297.95;;;23.14;37.31
61361;BME280;47232;47.506;18.936;2022-08-05T04:08:52;98294.34;;;23.13;37.35
61361;BME280;47232;47.506;18.936;2022-08-05T04:11:17;98294.48;;;23.13;37.42
61361;BME280;47232;47.506;18.936;2022-08-05T04:13:44;98299.67;;;23.13;37.81
61361;BME280;47232;47.506;18.936;2022-08-05T04:16:12;98299.14;;;23.12;37.97
61361;BME280;47232;47.506;18.936;2022-08-05T04:18:38;98298.20;;;23.12;38.05
61361;BME280;47232;47.506;18.936;2022-08-05T04:21:05;98292.55;;;23.11;37.95
61361;BME280;47232;47.506;18.936;2022-08-05T04:23:32;98291.20;;;23.12;38.00
61361;BME280;47232;47.506;18.936;2022-08-05T04:25:58;98286.58;;;23.12;37.97
61361;BME280;47232;47.506;18.936;2022-08-05T04:28:23;98290.73;;;23.12;37.97
61361;BME280;47232;47.506;18.936;2022-08-05T04:30:49;98290.65;;;23.13;38.16
61361;BME280;47232;47.506;18.936;2022-08-05T04:33:15;98288.29;;;23.15;38.29
61361;BME280;47232;47.506;18.936;2022-08-05T04:35:41;98287.35;;;23.16;38.13
61361;BME280;47232;47.506;18.936;2022-08-05T04:38:08;98290.16;;;23.18;38.19
61361;BME280;47232;47.506;18.936;2022-08-05T04:40:34;98289.30;;;23.20;38.04
61361;BME280;47232;47.506;18.936;2022-08-05T04:43:00;98292.98;;;23.26;37.56
61361;BME280;47232;47.506;18.936;2022-08-05T04:45:26;98291.16;;;23.32;37.59
61361;BME280;47232;47.506;18.936;2022-08-05T04:47:51;98292.55;;;23.38;37.35
61361;BME280;47232;47.506;18.936;2022-08-05T04:50:17;98290.83;;;23.45;37.21
61361;BME280;47232;47.506;18.936;2022-08-05T04:52:43;98290.40;;;23.53;36.74
61361;BME280;47232;47.506;18.936;2022-08-05T04:55:09;98293.98;;;23.63;36.80
61361;BME280;47232;47.506;18.936;2022-08-05T04:57:35;98289.03;;;23.72;36.36
61361;BME280;47232;47.506;18.936;2022-08-05T05:00:02;98293.15;;;23.80;36.05
61361;BME280;47232;47.506;18.936;2022-08-05T05:02:28;98294.36;;;23.90;35.88
61361;BME280;47232;47.506;18.936;2022-08-05T05:04:53;98288.59;;;23.98;36.12
61361;BME280;47232;47.506;18.936;2022-08-05T05:07:19;98289.17;;;24.08;35.90
61361;BME280;47232;47.506;18.936;2022-08-05T05:09:44;98283.95;;;24.15;35.61
61361;BME280;47232;47.506;18.936;2022-08-05T05:12:10;98288.45;;;24.25;35.59
61361;BME280;47232;47.506;18.936;2022-08-05T05:14:35;98288.10;;;24.32;35.49
61361;BME280;47232;47.506;18.936;2022-08-05T05:17:01;98290.80;;;24.42;35.38
61361;BME280;47232;47.506;18.936;2022-08-05T05:19:26;98291.37;;;24.50;35.30
61361;BME280;47232;47.506;18.936;2022-08-05T05:21:52;98291.14;;;24.59;35.31
61361;BME280;47232;47.506;18.936;2022-08-05T05:24:17;98291.31;;;24.68;35.53
61361;BME280;47232;47.506;18.936;2022-08-05T05:26:46;98292.45;;;24.76;35.44
61361;BME280;47232;47.506;18.936;2022-08-05T05:29:11;98292.23;;;24.83;35.56
61361;BME280;47232;47.506;18.936;2022-08-05T05:31:37;98293.56;;;24.92;35.40
61361;BME280;47232;47.506;18.936;2022-08-05T05:34:02;98294.83;;;25.00;35.65
61361;BME280;47232;47.506;18.936;2022-08-05T05:36:28;98292.65;;;25.06;35.21
61361;BME280;47232;47.506;18.936;2022-08-05T05:38:54;98294.02;;;25.14;35.12
61361;BME280;47232;47.506;18.936;2022-08-05T05:41:19;98292.91;;;25.23;34.90
61361;BME280;47232;47.506;18.936;2022-08-05T05:43:45;98289.92;;;25.31;34.92
61361;BME280;47232;47.506;18.936;2022-08-05T05:46:10;98292.83;;;25.38;34.70
61361;BME280;47232;47.506;18.936;2022-08-05T05:48:36;98291.94;;;25.47;34.18
61361;BME280;47232;47.506;18.936;2022-08-05T05:51:01;98288.45;;;25.57;34.11
61361;BME280;47232;47.506;18.936;2022-08-05T05:53:27;98283.71;;;25.64;33.52
61361;BME280;47232;47.506;18.936;2022-08-05T05:55:53;98281.87;;;25.74;33.51
61361;BME280;47232;47.506;18.936;2022-08-05T05:58:18;98286.89;;;25.83;33.10
61361;BME280;47232;47.506;18.936;2022-08-05T06:00:44;98289.84;;;25.94;33.16
61361;BME280;47232;47.506;18.936;2022-08-05T06:03:09;98289.94;;;26.04;33.07
61361;BME280;47232;47.506;18.936;2022-08-05T06:05:35;98295.09;;;26.14;32.98
61361;BME280;47232;47.506;18.936;2022-08-05T06:08:00;98291.08;;;26.24;32.75
61361;BME280;47232;47.506;18.936;2022-08-05T06:10:26;98294.02;;;26.34;32.56
61361;BME280;47232;47.506;18.936;2022-08-05T06:12:52;98293.98;;;26.43;32.50
61361;BME280;47232;47.506;18.936;2022-08-05T06:15:19;98295.34;;;26.53;32.06
61361;BME280;47232;47.506;18.936;2022-08-05T06:17:45;98294.08;;;26.63;32.16
61361;BME280;47232;47.506;18.936;2022-08-05T06:20:11;98298.17;;;26.73;32.29
61361;BME280;47232;47.506;18.936;2022-08-05T06:22:38;98298.41;;;26.83;32.02
61361;BME280;47232;47.506;18.936;2022-08-05T06:25:05;98298.56;;;26.93;31.82
61361;BME280;47232;47.506;18.936;2022-08-05T06:27:33;98289.73;;;27.02;31.70
61361;BME280;47232;47.506;18.936;2022-08-05T06:29:59;98291.46;;;27.12;31.58
61361;BME280;47232;47.506;18.936;2022-08-05T06:32:24;98295.93;;;27.23;31.51
61361;BME280;47232;47.506;18.936;2022-08-05T06:34:50;98293.53;;;27.33;31.15
61361;BME280;47232;47.506;18.936;2022-08-05T06:37:15;98289.08;;;27.43;31.03
61361;BME280;47232;47.506;18.936;2022-08-05T06:39:41;98292.71;;;27.51;30.80
61361;BME280;47232;47.506;18.936;2022-08-05T06:42:07;98289.98;;;27.61;30.52
61361;BME280;47232;47.506;18.936;2022-08-05T06:44:32;98294.02;;;27.69;30.66
61361;BME280;47232;47.506;18.936;2022-08-05T06:46:58;98291.63;;;27.80;30.43
61361;BME280;47232;47.506;18.936;2022-08-05T06:49:27;98291.12;;;27.89;30.40
61361;BME280;47232;47.506;18.936;2022-08-05T06:51:52;98295.41;;;27.96;30.24
61361;BME280;47232;47.506;18.936;2022-08-05T06:54:18;98295.81;;;28.06;30.28
61361;BME280;47232;47.506;18.936;2022-08-05T06:56:43;98300.48;;;28.16;30.08
61361;BME280;47232;47.506;18.936;2022-08-05T06:59:09;98298.91;;;28.24;29.95
61361;BME280;47232;47.506;18.936;2022-08-05T07:01:38;98296.25;;;28.33;29.78
61361;BME280;47232;47.506;18.936;2022-08-05T07:04:04;98297.64;;;28.43;29.94
61361;BME280;47232;47.506;18.936;2022-08-05T07:06:30;98295.33;;;28.53;29.75
61361;BME280;47232;47.506;18.936;2022-08-05T07:08:55;98304.13;;;28.63;29.92
61361;BME280;47232;47.506;18.936;2022-08-05T07:11:22;98302.40;;;28.72;29.28
61361;BME280;47232;47.506;18.936;2022-08-05T07:13:47;98306.24;;;28.80;29.45
61361;BME280;47232;47.506;18.936;2022-08-05T07:16:31;98306.52;;;28.92;29.30
61361;BME280;47232;47.506;18.936;2022-08-05T07:19:20;98307.08;;;29.02;29.33
61361;BME280;47232;47.506;18.936;2022-08-05T07:21:47;98307.58;;;29.13;29.20
61361;BME280;47232;47.506;18.936;2022-08-05T07:24:13;98308.52;;;29.23;29.24
61361;BME280;47232;47.506;18.936;2022-08-05T07:26:39;98304.54;;;29.32;28.86
61361;BME280;47232;47.506;18.936;2022-08-05T07:29:05;98307.71;;;29.42;28.82
61361;BME280;47232;47.506;18.936;2022-08-05T07:31:31;98307.49;;;29.49;28.48
61361;BME280;47232;47.506;18.936;2022-08-05T07:33:59;98303.81;;;29.57;28.12
61361;BME280;47232;47.506;18.936;2022-08-05T07:36:25;98306.48;;;29.61;27.76
61361;BME280;47232;47.506;18.936;2022-08-05T07:38:51;98309.55;;;29.65;27.89
61361;BME280;47232;47.506;18.936;2022-08-05T07:41:19;98307.34;;;29.68;27.56
61361;BME280;47232;47.506;18.936;2022-08-05T07:43:44;98304.05;;;29.69;27.46
61361;BME280;47232;47.506;18.936;2022-08-05T07:46:10;98307.14;;;29.77;27.68
61361;BME280;47232;47.506;18.936;2022-08-05T07:48:36;98304.91;;;29.86;27.36
61361;BME280;47232;47.506;18.936;2022-08-05T07:51:02;98301.48;;;29.92;27.57
61361;BME280;47232;47.506;18.936;2022-08-05T07:53:27;98301.77;;;29.99;27.09
61361;BME280;47232;47.506;18.936;2022-08-05T07:55:53;98303.67;;;30.03;27.06
61361;BME280;47232;47.506;18.936;2022-08-05T07:58:19;98303.23;;;30.09;26.86
61361;BME280;47232;47.506;18.936;2022-08-05T08:00:44;98305.89;;;30.18;26.99
61361;BME280;47232;47.506;18.936;2022-08-05T08:03:10;98302.98;;;30.23;27.06
61361;BME280;47232;47.506;18.936;2022-08-05T08:05:40;98311.98;;;30.29;26.94
61361;BME280;47232;47.506;18.936;2022-08-05T08:08:12;98311.46;;;30.38;26.95
61361;BME280;47232;47.506;18.936;2022-08-05T08:10:38;98311.00;;;30.48;27.08
61361;BME280;47232;47.506;18.936;2022-08-05T08:13:05;98303.83;;;30.57;27.12
61361;BME280;47232;47.506;18.936;2022-08-05T08:15:30;98304.21;;;30.62;26.59
61361;BME280;47232;47.506;18.936;2022-08-05T08:17:56;98300.82;;;30.69;26.83
61361;BME280;47232;47.506;18.936;2022-08-05T08:20:23;98310.54;;;30.76;26.62
61361;BME280;47232;47.506;18.936;2022-08-05T08:22:53;98309.34;;;30.82;26.61
61361;BME280;47232;47.506;18.936;2022-08-05T08:25:19;98302.61;;;30.90;26.28
61361;BME280;47232;47.506;18.936;2022-08-05T08:27:45;98302.52;;;30.95;26.56
61361;BME280;47232;47.506;18.936;2022-08-05T08:30:12;98303.30;;;31.07;26.91
61361;BME280;47232;47.506;18.936;2022-08-05T08:32:37;98299.27;;;31.21;26.51
61361;BME280;47232;47.506;18.936;2022-08-05T08:35:04;98297.41;;;31.32;26.52
61361;BME280;47232;47.506;18.936;2022-08-05T08:37:29;98301.36;;;31.41;26.10
61361;BME280;47232;47.506;18.936;2022-08-05T08:39:55;98295.34;;;31.52;26.24
61361;BME280;47232;47.506;18.936;2022-08-05T08:42:21;98299.52;;;31.64;26.01
61361;BME280;47232;47.506;18.936;2022-08-05T08:44:48;98302.75;;;31.73;25.47
61361;BME280;47232;47.506;18.936;2022-08-05T08:47:14;98299.09;;;31.78;25.49
61361;BME280;47232;47.506;18.936;2022-08-05T08:49:44;98299.92;;;31.86;25.43
61361;BME280;47232;47.506;18.936;2022-08-05T08:52:12;98303.71;;;31.93;24.96
61361;BME280;47232;47.506;18.936;2022-08-05T08:54:42;98303.34;;;31.99;25.28
61361;BME280;47232;47.506;18.936;2022-08-05T08:57:09;98303.77;;;32.09;25.35
61361;BME280;47232;47.506;18.936;2022-08-05T08:59:36;98298.05;;;32.16;25.00
61361;BME280;47232;47.506;18.936;2022-08-05T09:02:04;98295.00;;;32.18;24.31
61361;BME280;47232;47.506;18.936;2022-08-05T09:04:32;98289.97;;;32.20;24.58
61361;BME280;47232;47.506;18.936;2022-08-05T09:07:00;98297.52;;;32.26;24.34
61361;BME280;47232;47.506;18.936;2022-08-05T09:09:26;98291.55;;;32.32;24.29
61361;BME280;47232;47.506;18.936;2022-08-05T09:11:52;98293.41;;;32.42;24.36
61361;BME280;47232;47.506;18.936;2022-08-05T09:14:18;98292.92;;;32.49;23.98
61361;BME280;47232;47.506;18.936;2022-08-05T09:16:44;98294.23;;;32.49;23.63
61361;BME280;47232;47.506;18.936;2022-08-05T09:19:10;98293.77;;;32.52;23.60
61361;BME280;47232;47.506;18.936;2022-08-05T09:21:35;98288.64;;;32.56;23.52
61361;BME280;47232;47.506;18.936;2022-08-05T09:24:06;98287.14;;;32.64;23.82
61361;BME280;47232;47.506;18.936;2022-08-05T09:26:37;98282.71;;;32.75;24.13
61361;BME280;47232;47.506;18.936;2022-08-05T09:29:07;98284.81;;;32.89;23.84
61361;BME280;47232;47.506;18.936;2022-08-05T09:31:33;98281.80;;;33.01;23.37
61361;BME280;47232;47.506;18.936;2022-08-05T09:34:04;98275.43;;;33.06;23.29
61361;BME280;47232;47.506;18.936;2022-08-05T09:36:59;98273.27;;;33.14;23.37
61361;BME280;47232;47.506;18.936;2022-08-05T09:39:26;98272.23;;;33.27;23.50
61361;BME280;47232;47.506;18.936;2022-08-05T09:41:56;98278.90;;;33.37;22.94
61361;BME280;47232;47.506;18.936;2022-08-05T09:44:41;98270.19;;;33.40;23.16
61361;BME280;47232;47.506;18.936;2022-08-05T09:49:49;98263.55;;;33.63;23.28
61361;BME280;47232;47.506;18.936;2022-08-05T09:52:18;98264.73;;;33.80;23.00
61361;BME280;47232;47.506;18.936;2022-08-05T09:55:04;98265.02;;;33.94;22.76
61361;BME280;47232;47.506;18.936;2022-08-05T09:57:41;98260.84;;;34.06;22.64
61361;BME280;47232;47.506;18.936;2022-08-05T10:02:53;98253.69;;;34.30;22.44
61361;BME280;47232;47.506;18.936;2022-08-05T10:05:26;98252.63;;;34.46;22.18
61361;BME280;47232;47.506;18.936;2022-08-05T10:10:24;98252.20;;;34.66;21.84
61361;BME280;47232;47.506;18.936;2022-08-05T10:12:56;98247.87;;;34.76;21.55
61361;BME280;47232;47.506;18.936;2022-08-05T10:18:13;98247.59;;;34.94;21.39
61361;BME280;47232;47.506;18.936;2022-08-05T10:20:45;98244.88;;;35.01;21.15
61361;BME280;47232;47.506;18.936;2022-08-05T10:23:16;98243.61;;;35.01;20.73
61361;BME280;47232;47.506;18.936;2022-08-05T10:25:42;98239.14;;;35.00;20.60
61361;BME280;47232;47.506;18.936;2022-08-05T10:28:08;98232.98;;;35.10;20.87
61361;BME280;47232;47.506;18.936;2022-08-05T10:30:35;98242.57;;;35.17;20.62
61361;BME280;47232;47.506;18.936;2022-08-05T10:33:01;98229.66;;;35.18;20.54
61361;BME280;47232;47.506;18.936;2022-08-05T10:35:27;98228.29;;;35.23;20.90
61361;BME280;47232;47.506;18.936;2022-08-05T10:37:53;98236.63;;;35.36;20.68
61361;BME280;47232;47.506;18.936;2022-08-05T10:46:03;98226.77;;;35.67;19.86
61361;BME280;47232;47.506;18.936;2022-08-05T10:48:34;98224.85;;;35.78;20.04
61361;BME280;47232;47.506;18.936;2022-08-05T10:58:35;98216.66;;;36.20;19.63
61361;BME280;47232;47.506;18.936;2022-08-05T11:01:11;98208.84;;;36.29;19.39
61361;BME280;47232;47.506;18.936;2022-08-05T11:04:04;98214.60;;;36.32;19.06
61361;BME280;47232;47.506;18.936;2022-08-05T11:06:31;98206.63;;;36.34;19.26
61361;BME280;47232;47.506;18.936;2022-08-05T11:11:40;98213.21;;;36.51;18.86
61361;BME280;47232;47.506;18.936;2022-08-05T11:14:10;98209.80;;;36.63;18.59
61361;BME280;47232;47.506;18.936;2022-08-05T11:16:36;98208.95;;;36.81;18.49
61361;BME280;47232;47.506;18.936;2022-08-05T11:19:27;98204.41;;;36.96;18.08
61361;BME280;47232;47.506;18.936;2022-08-05T11:21:54;98203.42;;;37.14;18.27
61361;BME280;47232;47.506;18.936;2022-08-05T11:24:20;98198.72;;;37.28;18.14
61361;BME280;47232;47.506;18.936;2022-08-05T11:26:48;98197.88;;;37.39;18.08
61361;BME280;47232;47.506;18.936;2022-08-05T11:29:37;98203.67;;;37.43;18.13
61361;BME280;47232;47.506;18.936;2022-08-05T11:32:28;98201.46;;;37.50;17.91
61361;BME280;47232;47.506;18.936;2022-08-05T11:34:55;98201.81;;;37.61;17.83
61361;BME280;47232;47.506;18.936;2022-08-05T11:37:41;98203.09;;;37.62;17.57
61361;BME280;47232;47.506;18.936;2022-08-05T11:40:07;98190.89;;;37.63;17.53
61361;BME280;47232;47.506;18.936;2022-08-05T11:42:32;98194.44;;;37.77;17.43
61361;BME280;47232;47.506;18.936;2022-08-05T11:45:03;98195.05;;;37.93;17.49
61361;BME280;47232;47.506;18.936;2022-08-05T11:47:31;98195.67;;;38.09;17.24
61361;BME280;47232;47.506;18.936;2022-08-05T11:49:57;98195.45;;;38.25;17.03
61361;BME280;47232;47.506;18.936;2022-08-05T11:52:26;98196.08;;;38.38;16.79
61361;BME280;47232;47.506;18.936;2022-08-05T11:54:52;98190.84;;;38.53;16.52
61361;BME280;47232;47.506;18.936;2022-08-05T11:57:19;98197.42;;;38.64;16.47
61361;BME280;47232;47.506;18.936;2022-08-05T11:59:44;98195.48;;;38.63;16.38
61361;BME280;47232;47.506;18.936;2022-08-05T12:02:10;98196.25;;;38.66;16.27
61361;BME280;47232;47.506;18.936;2022-08-05T12:04:44;98190.15;;;38.74;15.97
61361;BME280;47232;47.506;18.936;2022-08-05T12:07:12;98192.82;;;38.85;16.13
61361;BME280;47232;47.506;18.936;2022-08-05T12:09:40;98190.04;;;38.92;16.17
61361;BME280;47232;47.506;18.936;2022-08-05T12:12:06;98192.63;;;39.04;16.17
61361;BME280;47232;47.506;18.936;2022-08-05T12:14:50;98193.02;;;39.14;16.03
61361;BME280;47232;47.506;18.936;2022-08-05T12:17:16;98189.33;;;39.18;16.12
61361;BME280;47232;47.506;18.936;2022-08-05T12:19:47;98186.84;;;39.22;16.11
61361;BME280;47232;47.506;18.936;2022-08-05T12:22:15;98189.13;;;39.34;16.05
61361;BME280;47232;47.506;18.936;2022-08-05T12:24:44;98185.77;;;39.50;15.96
61361;BME280;47232;47.506;18.936;2022-08-05T12:27:18;98176.55;;;39.71;15.86
61361;BME280;47232;47.506;18.936;2022-08-05T12:29:44;98171.02;;;39.97;15.88
61361;BME280;47232;47.506;18.936;2022-08-05T12:32:09;98170.23;;;40.31;15.56
61361;BME280;47232;47.506;18.936;2022-08-05T12:34:36;98174.85;;;40.47;15.07
61361;BME280;47232;47.506;18.936;2022-08-05T12:37:08;98175.79;;;40.45;14.82
61361;BME280;47232;47.506;18.936;2022-08-05T12:39:38;98173.70;;;40.38;14.60
61361;BME280;47232;47.506;18.936;2022-08-05T12:42:11;98178.71;;;40.46;14.81
61361;BME280;47232;47.506;18.936;2022-08-05T12:44:38;98173.77;;;40.49;14.75
61361;BME280;47232;47.506;18.936;2022-08-05T12:47:04;98171.27;;;40.60;14.80
61361;BME280;47232;47.506;18.936;2022-08-05T12:49:46;98173.27;;;40.68;14.42
61361;BME280;47232;47.506;18.936;2022-08-05T12:52:17;98166.50;;;40.85;14.19
61361;BME280;47232;47.506;18.936;2022-08-05T12:54:46;98163.33;;;41.05;14.28
61361;BME280;47232;47.506;18.936;2022-08-05T12:57:13;98161.73;;;41.14;14.19
61361;BME280;47232;47.506;18.936;2022-08-05T12:59:48;98165.86;;;41.13;14.24
61361;BME280;47232;47.506;18.936;2022-08-05T13:02:23;98162.94;;;41.11;14.43
61361;BME280;47232;47.506;18.936;2022-08-05T13:04:49;98157.59;;;41.20;14.25
61361;BME280;47232;47.506;18.936;2022-08-05T13:07:18;98153.27;;;41.37;14.09
61361;BME280;47232;47.506;18.936;2022-08-05T13:09:50;98153.94;;;41.57;14.11
61361;BME280;47232;47.506;18.936;2022-08-05T13:12:17;98141.47;;;41.85;13.90
61361;BME280;47232;47.506;18.936;2022-08-05T13:14:45;98138.89;;;42.16;13.64
61361;BME280;47232;47.506;18.936;2022-08-05T13:19:39;98136.70;;;42.91;13.34
61361;BME280;47232;47.506;18.936;2022-08-05T13:22:05;98130.93;;;43.23;12.97
61361;BME280;47232;47.506;18.936;2022-08-05T13:24:30;98129.00;;;43.54;13.03